sensor_id;sensor_type;location;lat;lon;timestamp;noise_LAeq;noise_LA_min;noise_LA_max;noise_LA01;noise_LA95
66456;Laerm;56833;52.254;5.598;2022-12-16T00:00:07;33.20;31.29;34.98;;
66456;Laerm;56833;52.254;5.598;2022-12-16T00:00:21;33.49;31.43;37.18;;
66456;Laerm;56833;52.254;5.598;2022-12-16T00:00:31;33.04;31.10;35.46;;
66456;Laerm;56833;52.254;5.598;2022-12-16T00:00:41;33.48;31.12;35.92;;
66456;Laerm;56833;52.254;5.598;2022-12-16T00:01:01;33.65;31.74;36.02;;
66456;Laerm;56833;52.254;5.598;2022-12-16T00:01:15;34.06;31.99;36.12;;
66456;Laerm;56833;52.254;5.598;2022-12-16T00:01:27;34.86;32.48;36.95;;
66456;Laerm;56833;52.254;5.598;2022-12-16T00:01:38;34.42;31.95;36.31;;
66456;Laerm;56833;52.254;5.598;2022-12-16T00:01:48;33.24;31.53;35.98;;
66456;Laerm;56833;52.254;5.598;2022-12-16T00:01:58;33.08;31.27;35.30;;
66456;Laerm;56833;52.254;5.598;2022-12-16T00:02:08;33.28;31.68;35.10;;
66456;Laerm;56833;52.254;5.598;2022-12-16T00:02:19;33.39;31.52;35.22;;
66456;Laerm;56833;52.254;5.598;2022-12-16T00:02:29;33.32;31.46;35.13;;
66456;Laerm;56833;52.254;5.598;2022-12-16T00:02:39;33.60;31.75;35.37;;
66456;Laerm;56833;52.254;5.598;2022-12-16T00:02:50;33.98;32.45;35.87;;
66456;Laerm;56833;52.254;5.598;2022-12-16T00:03:00;34.46;32.67;36.43;;
66456;Laerm;56833;52.254;5.598;2022-12-16T00:03:10;35.00;32.85;37.84;;
66456;Laerm;56833;52.254;5.598;2022-12-16T00:03:21;34.90;32.89;37.56;;
66456;Laerm;56833;52.254;5.598;2022-12-16T00:03:33;34.48;32.29;36.86;;
66456;Laerm;56833;52.254;5.598;2022-12-16T00:03:53;34.62;32.35;37.21;;
66456;Laerm;56833;52.254;5.598;2022-12-16T00:04:04;34.19;32.34;36.28;;
66456;Laerm;56833;52.254;5.598;2022-12-16T00:04:19;34.57;32.50;37.08;;
66456;Laerm;56833;52.254;5.598;2022-12-16T00:04:29;34.36;32.54;36.62;;
66456;Laerm;56833;52.254;5.598;2022-12-16T00:04:40;34.21;32.15;36.12;;
66456;Laerm;56833;52.254;5.598;2022-12-16T00:04:50;33.70;31.77;35.87;;
66456;Laerm;56833;52.254;5.598;2022-12-16T00:05:00;33.40;31.12;35.44;;
66456;Laerm;56833;52.254;5.598;2022-12-16T00:05:11;33.08;31.09;34.58;;
66456;Laerm;56833;52.254;5.598;2022-12-16T00:05:21;33.88;31.74;36.03;;
66456;Laerm;56833;52.254;5.598;2022-12-16T00:05:31;34.69;32.66;36.60;;
66456;Laerm;56833;52.254;5.598;2022-12-16T00:05:44;35.79;33.05;38.97;;
66456;Laerm;56833;52.254;5.598;2022-12-16T00:05:57;34.89;31.18;37.76;;
66456;Laerm;56833;52.254;5.598;2022-12-16T00:06:07;34.33;32.65;36.34;;
66456;Laerm;56833;52.254;5.598;2022-12-16T00:06:18;34.42;32.31;36.82;;
66456;Laerm;56833;52.254;5.598;2022-12-16T00:06:30;34.47;32.27;36.74;;
66456;Laerm;56833;52.254;5.598;2022-12-16T00:06:41;37.26;32.98;55.59;;
66456;Laerm;56833;52.254;5.598;2022-12-16T00:06:51;35.56;33.50;43.80;;
66456;Laerm;56833;52.254;5.598;2022-12-16T00:07:01;35.37;32.17;37.53;;
66456;Laerm;56833;52.254;5.598;2022-12-16T00:07:11;34.38;32.23;36.11;;
66456;Laerm;56833;52.254;5.598;2022-12-16T00:07:22;34.08;32.02;36.20;;
66456;Laerm;56833;52.254;5.598;2022-12-16T00:07:32;34.53;32.78;39.45;;
66456;Laerm;56833;52.254;5.598;2022-12-16T00:07:42;35.75;33.76;38.34;;
66456;Laerm;56833;52.254;5.598;2022-12-16T00:07:53;36.39;33.49;39.20;;
66456;Laerm;56833;52.254;5.598;2022-12-16T00:08:04;34.39;32.39;36.22;;
66456;Laerm;56833;52.254;5.598;2022-12-16T00:08:14;34.48;32.53;36.09;;
66456;Laerm;56833;52.254;5.598;2022-12-16T00:08:25;34.47;31.88;36.51;;
66456;Laerm;56833;52.254;5.598;2022-12-16T00:08:36;34.56;31.96;36.57;;
66456;Laerm;56833;52.254;5.598;2022-12-16T00:08:47;34.45;32.36;36.86;;
66456;Laerm;56833;52.254;5.598;2022-12-16T00:08:57;33.94;32.00;36.27;;
66456;Laerm;56833;52.254;5.598;2022-12-16T00:09:08;35.17;32.29;37.14;;
66456;Laerm;56833;52.254;5.598;2022-12-16T00:09:18;35.84;33.19;38.63;;
66456;Laerm;56833;52.254;5.598;2022-12-16T00:09:29;37.32;34.85;41.21;;
66456;Laerm;56833;52.254;5.598;2022-12-16T00:09:39;35.08;32.20;38.57;;
66456;Laerm;56833;52.254;5.598;2022-12-16T00:09:50;34.30;32.70;36.54;;
66456;Laerm;56833;52.254;5.598;2022-12-16T00:10:00;34.10;32.28;36.38;;
66456;Laerm;56833;52.254;5.598;2022-12-16T00:10:10;34.20;32.07;36.16;;
66456;Laerm;56833;52.254;5.598;2022-12-16T00:10:21;34.13;32.54;36.01;;
66456;Laerm;56833;52.254;5.598;2022-12-16T00:10:31;33.72;31.62;35.42;;
66456;Laerm;56833;52.254;5.598;2022-12-16T00:11:02;34.65;31.84;37.13;;
66456;Laerm;56833;52.254;5.598;2022-12-16T00:11:12;34.16;31.99;36.17;;
66456;Laerm;56833;52.254;5.598;2022-12-16T00:11:23;33.77;31.73;37.86;;
66456;Laerm;56833;52.254;5.598;2022-12-16T00:11:33;33.19;31.16;35.27;;
66456;Laerm;56833;52.254;5.598;2022-12-16T00:11:43;33.22;31.43;35.00;;
66456;Laerm;56833;52.254;5.598;2022-12-16T00:11:54;33.34;31.67;35.16;;
66456;Laerm;56833;52.254;5.598;2022-12-16T00:12:04;33.57;31.80;35.69;;
66456;Laerm;56833;52.254;5.598;2022-12-16T00:12:14;34.12;31.50;37.87;;
66456;Laerm;56833;52.254;5.598;2022-12-16T00:12:24;35.14;32.96;38.55;;
66456;Laerm;56833;52.254;5.598;2022-12-16T00:12:35;36.10;32.95;41.99;;
66456;Laerm;56833;52.254;5.598;2022-12-16T00:12:45;36.53;32.64;43.45;;
66456;Laerm;56833;52.254;5.598;2022-12-16T00:12:55;34.92;32.21;39.74;;
66456;Laerm;56833;52.254;5.598;2022-12-16T00:13:05;35.63;32.79;39.59;;
66456;Laerm;56833;52.254;5.598;2022-12-16T00:13:15;35.41;32.59;39.18;;
66456;Laerm;56833;52.254;5.598;2022-12-16T00:13:26;34.12;32.22;35.63;;
66456;Laerm;56833;52.254;5.598;2022-12-16T00:13:37;34.52;32.60;36.79;;
66456;Laerm;56833;52.254;5.598;2022-12-16T00:13:47;34.08;32.26;36.01;;
66456;Laerm;56833;52.254;5.598;2022-12-16T00:13:57;34.08;32.07;36.39;;
66456;Laerm;56833;52.254;5.598;2022-12-16T00:14:08;34.18;32.32;36.03;;
66456;Laerm;56833;52.254;5.598;2022-12-16T00:14:18;33.88;32.02;35.61;;
66456;Laerm;56833;52.254;5.598;2022-12-16T00:14:28;34.52;32.21;36.27;;
66456;Laerm;56833;52.254;5.598;2022-12-16T00:14:38;34.63;32.51;40.34;;
66456;Laerm;56833;52.254;5.598;2022-12-16T00:14:49;34.23;31.96;36.26;;
66456;Laerm;56833;52.254;5.598;2022-12-16T00:14:59;35.19;32.89;37.64;;
66456;Laerm;56833;52.254;5.598;2022-12-16T00:15:09;34.27;32.01;36.41;;
66456;Laerm;56833;52.254;5.598;2022-12-16T00:15:20;34.04;31.53;36.30;;
66456;Laerm;56833;52.254;5.598;2022-12-16T00:15:30;34.49;32.10;36.57;;
66456;Laerm;56833;52.254;5.598;2022-12-16T00:15:40;34.26;32.56;37.59;;
66456;Laerm;56833;52.254;5.598;2022-12-16T00:15:50;33.89;32.00;35.73;;
66456;Laerm;56833;52.254;5.598;2022-12-16T00:16:04;34.06;32.34;35.88;;
66456;Laerm;56833;52.254;5.598;2022-12-16T00:16:15;33.72;31.35;36.13;;
66456;Laerm;56833;52.254;5.598;2022-12-16T00:16:26;34.40;32.58;36.56;;
66456;Laerm;56833;52.254;5.598;2022-12-16T00:16:36;33.74;31.98;35.74;;
66456;Laerm;56833;52.254;5.598;2022-12-16T00:16:47;34.19;32.50;35.98;;
66456;Laerm;56833;52.254;5.598;2022-12-16T00:16:57;34.73;32.77;36.67;;
66456;Laerm;56833;52.254;5.598;2022-12-16T00:17:07;35.75;33.48;38.00;;
66456;Laerm;56833;52.254;5.598;2022-12-16T00:17:17;35.27;32.90;38.62;;
66456;Laerm;56833;52.254;5.598;2022-12-16T00:17:28;34.15;31.85;37.25;;
66456;Laerm;56833;52.254;5.598;2022-12-16T00:17:38;34.02;31.50;35.92;;
66456;Laerm;56833;52.254;5.598;2022-12-16T00:17:48;36.21;32.75;42.18;;
66456;Laerm;56833;52.254;5.598;2022-12-16T00:17:58;37.80;34.20;40.20;;
66456;Laerm;56833;52.254;5.598;2022-12-16T00:18:09;36.20;33.57;40.07;;
66456;Laerm;56833;52.254;5.598;2022-12-16T00:18:19;36.47;33.66;40.53;;
66456;Laerm;56833;52.254;5.598;2022-12-16T00:18:29;36.49;33.90;40.00;;
66456;Laerm;56833;52.254;5.598;2022-12-16T00:18:40;36.91;33.31;41.53;;
66456;Laerm;56833;52.254;5.598;2022-12-16T00:18:50;37.37;34.76;39.68;;
66456;Laerm;56833;52.254;5.598;2022-12-16T00:19:00;38.13;34.76;40.66;;
66456;Laerm;56833;52.254;5.598;2022-12-16T00:19:10;37.85;35.28;40.47;;
66456;Laerm;56833;52.254;5.598;2022-12-16T00:19:21;36.09;32.91;38.69;;
66456;Laerm;56833;52.254;5.598;2022-12-16T00:19:31;34.23;32.17;36.39;;
66456;Laerm;56833;52.254;5.598;2022-12-16T00:19:41;34.10;32.30;35.87;;
66456;Laerm;56833;52.254;5.598;2022-12-16T00:19:51;34.30;32.09;38.26;;
66456;Laerm;56833;52.254;5.598;2022-12-16T00:20:02;33.94;32.18;35.59;;
66456;Laerm;56833;52.254;5.598;2022-12-16T00:20:13;34.27;32.20;38.14;;
66456;Laerm;56833;52.254;5.598;2022-12-16T00:20:23;34.38;32.36;40.55;;
66456;Laerm;56833;52.254;5.598;2022-12-16T00:20:33;35.53;33.69;41.95;;
66456;Laerm;56833;52.254;5.598;2022-12-16T00:20:44;34.36;32.39;37.76;;
66456;Laerm;56833;52.254;5.598;2022-12-16T00:20:54;34.38;32.30;36.95;;
66456;Laerm;56833;52.254;5.598;2022-12-16T00:21:05;34.38;31.86;37.40;;
66456;Laerm;56833;52.254;5.598;2022-12-16T00:21:16;33.70;31.81;36.22;;
66456;Laerm;56833;52.254;5.598;2022-12-16T00:21:29;34.42;32.19;36.74;;
66456;Laerm;56833;52.254;5.598;2022-12-16T00:21:39;34.26;32.34;36.17;;
66456;Laerm;56833;52.254;5.598;2022-12-16T00:21:49;34.00;31.94;36.93;;
66456;Laerm;56833;52.254;5.598;2022-12-16T00:22:00;33.89;31.84;35.90;;
66456;Laerm;56833;52.254;5.598;2022-12-16T00:22:10;33.91;31.89;35.83;;
66456;Laerm;56833;52.254;5.598;2022-12-16T00:22:21;33.94;32.07;36.02;;
66456;Laerm;56833;52.254;5.598;2022-12-16T00:22:31;33.75;31.81;35.64;;
66456;Laerm;56833;52.254;5.598;2022-12-16T00:22:42;33.73;31.72;35.87;;
66456;Laerm;56833;52.254;5.598;2022-12-16T00:22:52;33.80;31.81;35.68;;
66456;Laerm;56833;52.254;5.598;2022-12-16T00:23:02;33.72;32.19;35.33;;
66456;Laerm;56833;52.254;5.598;2022-12-16T00:23:12;34.09;31.92;39.33;;
66456;Laerm;56833;52.254;5.598;2022-12-16T00:23:23;34.41;32.34;36.50;;
66456;Laerm;56833;52.254;5.598;2022-12-16T00:23:33;34.67;32.71;36.64;;
66456;Laerm;56833;52.254;5.598;2022-12-16T00:23:44;35.06;32.47;37.26;;
66456;Laerm;56833;52.254;5.598;2022-12-16T00:23:55;33.91;31.89;35.68;;
66456;Laerm;56833;52.254;5.598;2022-12-16T00:24:05;34.20;31.93;36.76;;
66456;Laerm;56833;52.254;5.598;2022-12-16T00:24:16;36.33;33.92;38.90;;
66456;Laerm;56833;52.254;5.598;2022-12-16T00:24:26;34.98;33.19;37.33;;
66456;Laerm;56833;52.254;5.598;2022-12-16T00:24:36;35.18;33.06;36.77;;
66456;Laerm;56833;52.254;5.598;2022-12-16T00:24:46;34.53;32.42;37.80;;
66456;Laerm;56833;52.254;5.598;2022-12-16T00:24:57;33.51;31.79;35.31;;
66456;Laerm;56833;52.254;5.598;2022-12-16T00:25:07;34.16;31.84;43.63;;
66456;Laerm;56833;52.254;5.598;2022-12-16T00:25:17;33.92;32.21;36.96;;
66456;Laerm;56833;52.254;5.598;2022-12-16T00:25:27;35.05;32.50;42.30;;
66456;Laerm;56833;52.254;5.598;2022-12-16T00:25:39;34.50;32.46;36.49;;
66456;Laerm;56833;52.254;5.598;2022-12-16T00:25:50;35.18;32.93;37.26;;
66456;Laerm;56833;52.254;5.598;2022-12-16T00:26:00;34.91;32.59;37.02;;
66456;Laerm;56833;52.254;5.598;2022-12-16T00:26:11;34.87;32.36;39.67;;
66456;Laerm;56833;52.254;5.598;2022-12-16T00:26:22;34.86;32.34;38.07;;
66456;Laerm;56833;52.254;5.598;2022-12-16T00:26:32;34.02;32.15;36.03;;
66456;Laerm;56833;52.254;5.598;2022-12-16T00:26:42;34.66;32.36;37.81;;
66456;Laerm;56833;52.254;5.598;2022-12-16T00:26:52;33.95;32.25;36.44;;
66456;Laerm;56833;52.254;5.598;2022-12-16T00:27:03;33.79;31.73;35.91;;
66456;Laerm;56833;52.254;5.598;2022-12-16T00:27:13;33.91;32.16;36.69;;
66456;Laerm;56833;52.254;5.598;2022-12-16T00:27:23;34.33;32.45;36.22;;
66456;Laerm;56833;52.254;5.598;2022-12-16T00:27:33;34.02;31.84;35.87;;
66456;Laerm;56833;52.254;5.598;2022-12-16T00:27:43;34.15;32.41;36.84;;
66456;Laerm;56833;52.254;5.598;2022-12-16T00:27:54;33.98;31.67;35.91;;
66456;Laerm;56833;52.254;5.598;2022-12-16T00:28:04;34.25;32.14;37.27;;
66456;Laerm;56833;52.254;5.598;2022-12-16T00:28:15;35.50;33.27;38.83;;
66456;Laerm;56833;52.254;5.598;2022-12-16T00:28:26;36.75;32.85;42.09;;
66456;Laerm;56833;52.254;5.598;2022-12-16T00:28:36;39.59;33.59;46.69;;
66456;Laerm;56833;52.254;5.598;2022-12-16T00:28:47;42.18;34.82;50.71;;
66456;Laerm;56833;52.254;5.598;2022-12-16T00:28:57;43.04;35.75;52.45;;
66456;Laerm;56833;52.254;5.598;2022-12-16T00:29:07;42.06;35.36;50.99;;
66456;Laerm;56833;52.254;5.598;2022-12-16T00:29:20;40.77;34.53;49.41;;
66456;Laerm;56833;52.254;5.598;2022-12-16T00:29:30;39.81;35.09;46.40;;
66456;Laerm;56833;52.254;5.598;2022-12-16T00:29:40;36.87;33.29;41.32;;
66456;Laerm;56833;52.254;5.598;2022-12-16T00:29:50;35.90;33.33;40.17;;
66456;Laerm;56833;52.254;5.598;2022-12-16T00:30:00;34.91;32.02;40.10;;
66456;Laerm;56833;52.254;5.598;2022-12-16T00:30:11;34.58;31.90;38.73;;
66456;Laerm;56833;52.254;5.598;2022-12-16T00:30:21;33.86;31.70;37.17;;
66456;Laerm;56833;52.254;5.598;2022-12-16T00:30:31;33.78;31.52;35.80;;
66456;Laerm;56833;52.254;5.598;2022-12-16T00:30:42;34.55;32.53;37.32;;
66456;Laerm;56833;52.254;5.598;2022-12-16T00:30:53;34.17;32.03;36.59;;
66456;Laerm;56833;52.254;5.598;2022-12-16T00:31:03;32.84;30.99;34.45;;
66456;Laerm;56833;52.254;5.598;2022-12-16T00:31:14;32.77;30.66;36.04;;
66456;Laerm;56833;52.254;5.598;2022-12-16T00:31:25;32.53;30.79;34.66;;
66456;Laerm;56833;52.254;5.598;2022-12-16T00:31:35;32.38;30.63;34.48;;
66456;Laerm;56833;52.254;5.598;2022-12-16T00:31:45;32.83;30.96;34.49;;
66456;Laerm;56833;52.254;5.598;2022-12-16T00:31:57;32.04;30.61;33.85;;
66456;Laerm;56833;52.254;5.598;2022-12-16T00:32:07;31.81;30.15;33.25;;
66456;Laerm;56833;52.254;5.598;2022-12-16T00:32:17;31.84;29.85;33.12;;
66456;Laerm;56833;52.254;5.598;2022-12-16T00:32:27;32.00;30.79;33.68;;
66456;Laerm;56833;52.254;5.598;2022-12-16T00:32:37;32.21;30.45;34.45;;
66456;Laerm;56833;52.254;5.598;2022-12-16T00:32:48;31.92;30.51;33.36;;
66456;Laerm;56833;52.254;5.598;2022-12-16T00:32:58;31.96;30.47;34.00;;
66456;Laerm;56833;52.254;5.598;2022-12-16T00:33:08;32.11;30.78;33.68;;
66456;Laerm;56833;52.254;5.598;2022-12-16T00:33:19;33.32;31.25;36.25;;
66456;Laerm;56833;52.254;5.598;2022-12-16T00:33:30;33.60;31.62;37.28;;
66456;Laerm;56833;52.254;5.598;2022-12-16T00:33:40;32.47;30.50;34.25;;
66456;Laerm;56833;52.254;5.598;2022-12-16T00:33:54;32.74;31.10;34.85;;
66456;Laerm;56833;52.254;5.598;2022-12-16T00:34:04;32.44;30.68;33.73;;
66456;Laerm;56833;52.254;5.598;2022-12-16T00:34:14;32.23;30.56;33.80;;
66456;Laerm;56833;52.254;5.598;2022-12-16T00:34:25;32.71;31.02;34.11;;
66456;Laerm;56833;52.254;5.598;2022-12-16T00:34:35;33.00;31.33;35.36;;
66456;Laerm;56833;52.254;5.598;2022-12-16T00:34:45;32.53;31.05;35.14;;
66456;Laerm;56833;52.254;5.598;2022-12-16T00:34:55;33.92;31.66;36.04;;
66456;Laerm;56833;52.254;5.598;2022-12-16T00:35:05;34.85;32.77;37.72;;
66456;Laerm;56833;52.254;5.598;2022-12-16T00:35:16;33.29;31.49;34.88;;
66456;Laerm;56833;52.254;5.598;2022-12-16T00:35:26;34.50;31.51;38.56;;
66456;Laerm;56833;52.254;5.598;2022-12-16T00:35:36;35.07;32.13;40.87;;
66456;Laerm;56833;52.254;5.598;2022-12-16T00:35:47;36.30;33.56;40.16;;
66456;Laerm;56833;52.254;5.598;2022-12-16T00:35:57;37.30;33.48;42.86;;
66456;Laerm;56833;52.254;5.598;2022-12-16T00:36:07;37.20;33.17;41.70;;
66456;Laerm;56833;52.254;5.598;2022-12-16T00:36:18;37.52;34.07;41.78;;
66456;Laerm;56833;52.254;5.598;2022-12-16T00:36:28;38.30;34.98;42.81;;
66456;Laerm;56833;52.254;5.598;2022-12-16T00:36:38;36.96;33.64;40.79;;
66456;Laerm;56833;52.254;5.598;2022-12-16T00:36:48;35.55;31.84;42.82;;
66456;Laerm;56833;52.254;5.598;2022-12-16T00:36:59;34.02;31.57;36.90;;
66456;Laerm;56833;52.254;5.598;2022-12-16T00:37:10;33.10;31.57;36.02;;
66456;Laerm;56833;52.254;5.598;2022-12-16T00:37:20;32.98;30.97;36.56;;
66456;Laerm;56833;52.254;5.598;2022-12-16T00:37:30;32.68;30.83;34.70;;
66456;Laerm;56833;52.254;5.598;2022-12-16T00:37:41;32.95;31.35;34.82;;
66456;Laerm;56833;52.254;5.598;2022-12-16T00:37:51;32.86;30.90;34.99;;
66456;Laerm;56833;52.254;5.598;2022-12-16T00:38:02;32.49;30.95;34.27;;
66456;Laerm;56833;52.254;5.598;2022-12-16T00:38:12;32.35;30.76;34.06;;
66456;Laerm;56833;52.254;5.598;2022-12-16T00:38:24;32.54;31.02;34.88;;
66456;Laerm;56833;52.254;5.598;2022-12-16T00:38:35;32.54;30.80;34.20;;
66456;Laerm;56833;52.254;5.598;2022-12-16T00:38:45;32.39;30.91;34.35;;
66456;Laerm;56833;52.254;5.598;2022-12-16T00:38:55;32.24;30.85;33.92;;
66456;Laerm;56833;52.254;5.598;2022-12-16T00:39:05;32.20;30.43;33.74;;
66456;Laerm;56833;52.254;5.598;2022-12-16T00:39:15;32.32;30.74;34.22;;
66456;Laerm;56833;52.254;5.598;2022-12-16T00:39:26;32.44;30.87;34.34;;
66456;Laerm;56833;52.254;5.598;2022-12-16T00:39:36;32.88;30.63;34.51;;
66456;Laerm;56833;52.254;5.598;2022-12-16T00:39:46;32.94;31.17;34.97;;
66456;Laerm;56833;52.254;5.598;2022-12-16T00:39:56;33.44;31.48;34.98;;
66456;Laerm;56833;52.254;5.598;2022-12-16T00:40:07;33.57;31.94;34.97;;
66456;Laerm;56833;52.254;5.598;2022-12-16T00:40:17;33.61;31.91;35.50;;
66456;Laerm;56833;52.254;5.598;2022-12-16T00:40:28;33.45;31.99;35.04;;
66456;Laerm;56833;52.254;5.598;2022-12-16T00:40:38;33.27;31.37;35.38;;
66456;Laerm;56833;52.254;5.598;2022-12-16T00:40:49;33.14;31.38;34.77;;
66456;Laerm;56833;52.254;5.598;2022-12-16T00:40:59;33.31;31.18;34.99;;
66456;Laerm;56833;52.254;5.598;2022-12-16T00:41:09;33.29;31.64;35.46;;
66456;Laerm;56833;52.254;5.598;2022-12-16T00:41:19;33.61;31.74;35.92;;
66456;Laerm;56833;52.254;5.598;2022-12-16T00:41:30;34.28;32.24;37.33;;
66456;Laerm;56833;52.254;5.598;2022-12-16T00:41:40;34.15;32.12;36.00;;
66456;Laerm;56833;52.254;5.598;2022-12-16T00:41:50;33.40;30.58;35.94;;
66456;Laerm;56833;52.254;5.598;2022-12-16T00:42:00;32.11;30.61;33.76;;
66456;Laerm;56833;52.254;5.598;2022-12-16T00:42:11;32.29;30.32;34.09;;
66456;Laerm;56833;52.254;5.598;2022-12-16T00:42:21;32.15;30.52;34.37;;
66456;Laerm;56833;52.254;5.598;2022-12-16T00:42:31;32.65;30.65;34.72;;
66456;Laerm;56833;52.254;5.598;2022-12-16T00:42:41;32.32;30.68;38.52;;
66456;Laerm;56833;52.254;5.598;2022-12-16T00:42:52;31.77;30.16;34.04;;
66456;Laerm;56833;52.254;5.598;2022-12-16T00:43:02;32.10;30.37;35.01;;
66456;Laerm;56833;52.254;5.598;2022-12-16T00:43:12;32.26;30.61;33.97;;
66456;Laerm;56833;52.254;5.598;2022-12-16T00:43:22;32.41;30.74;34.11;;
66456;Laerm;56833;52.254;5.598;2022-12-16T00:43:33;32.51;30.85;34.09;;
66456;Laerm;56833;52.254;5.598;2022-12-16T00:43:43;32.95;30.85;35.60;;
66456;Laerm;56833;52.254;5.598;2022-12-16T00:43:53;32.75;30.66;37.76;;
66456;Laerm;56833;52.254;5.598;2022-12-16T00:44:03;32.48;30.89;34.29;;
66456;Laerm;56833;52.254;5.598;2022-12-16T00:44:14;32.30;30.41;34.76;;
66456;Laerm;56833;52.254;5.598;2022-12-16T00:44:24;31.29;29.94;33.34;;
66456;Laerm;56833;52.254;5.598;2022-12-16T00:44:34;31.61;30.07;33.32;;
66456;Laerm;56833;52.254;5.598;2022-12-16T00:44:44;32.48;30.71;35.88;;
66456;Laerm;56833;52.254;5.598;2022-12-16T00:44:54;35.46;32.06;39.00;;
66456;Laerm;56833;52.254;5.598;2022-12-16T00:45:05;33.95;31.39;37.64;;
66456;Laerm;56833;52.254;5.598;2022-12-16T00:45:15;33.51;31.90;35.20;;
66456;Laerm;56833;52.254;5.598;2022-12-16T00:45:25;32.88;30.58;35.68;;
66456;Laerm;56833;52.254;5.598;2022-12-16T00:45:36;32.87;30.87;36.03;;
66456;Laerm;56833;52.254;5.598;2022-12-16T00:45:46;32.91;30.78;35.77;;
66456;Laerm;56833;52.254;5.598;2022-12-16T00:45:57;31.47;29.58;33.19;;
66456;Laerm;56833;52.254;5.598;2022-12-16T00:46:07;31.35;29.58;33.02;;
66456;Laerm;56833;52.254;5.598;2022-12-16T00:46:17;31.67;29.78;34.30;;
66456;Laerm;56833;52.254;5.598;2022-12-16T00:46:28;31.96;30.36;33.32;;
66456;Laerm;56833;52.254;5.598;2022-12-16T00:46:38;31.92;30.16;33.34;;
66456;Laerm;56833;52.254;5.598;2022-12-16T00:46:49;31.97;30.39;33.37;;
66456;Laerm;56833;52.254;5.598;2022-12-16T00:46:59;33.55;30.63;37.27;;
66456;Laerm;56833;52.254;5.598;2022-12-16T00:47:09;35.61;30.99;40.57;;
66456;Laerm;56833;52.254;5.598;2022-12-16T00:47:19;31.63;30.12;34.03;;
66456;Laerm;56833;52.254;5.598;2022-12-16T00:47:29;31.31;29.51;33.09;;
66456;Laerm;56833;52.254;5.598;2022-12-16T00:47:40;32.02;30.29;38.87;;
66456;Laerm;56833;52.254;5.598;2022-12-16T00:47:50;32.28;30.05;41.00;;
66456;Laerm;56833;52.254;5.598;2022-12-16T00:48:00;31.57;30.21;33.69;;
66456;Laerm;56833;52.254;5.598;2022-12-16T00:48:10;31.73;30.04;33.28;;
66456;Laerm;56833;52.254;5.598;2022-12-16T00:48:21;31.83;30.02;33.18;;
66456;Laerm;56833;52.254;5.598;2022-12-16T00:48:32;32.06;30.58;33.78;;
66456;Laerm;56833;52.254;5.598;2022-12-16T00:48:42;32.19;30.67;33.51;;
66456;Laerm;56833;52.254;5.598;2022-12-16T00:48:52;32.02;30.24;33.49;;
66456;Laerm;56833;52.254;5.598;2022-12-16T00:49:02;31.84;30.30;33.06;;
66456;Laerm;56833;52.254;5.598;2022-12-16T00:49:13;32.37;30.74;35.17;;
66456;Laerm;56833;52.254;5.598;2022-12-16T00:49:23;33.55;30.84;35.99;;
66456;Laerm;56833;52.254;5.598;2022-12-16T00:49:33;33.97;32.14;35.59;;
66456;Laerm;56833;52.254;5.598;2022-12-16T00:49:43;32.45;30.69;34.15;;
66456;Laerm;56833;52.254;5.598;2022-12-16T00:49:53;32.13;30.61;33.81;;
66456;Laerm;56833;52.254;5.598;2022-12-16T00:50:04;32.91;31.01;34.52;;
66456;Laerm;56833;52.254;5.598;2022-12-16T00:50:15;32.70;30.87;35.41;;
66456;Laerm;56833;52.254;5.598;2022-12-16T00:50:25;33.60;31.45;36.77;;
66456;Laerm;56833;52.254;5.598;2022-12-16T00:50:35;33.56;31.90;35.54;;
66456;Laerm;56833;52.254;5.598;2022-12-16T00:50:48;34.78;31.90;36.61;;
66456;Laerm;56833;52.254;5.598;2022-12-16T00:50:58;32.28;29.95;34.15;;
66456;Laerm;56833;52.254;5.598;2022-12-16T00:51:08;31.68;30.06;33.22;;
66456;Laerm;56833;52.254;5.598;2022-12-16T00:51:19;31.67;30.23;33.51;;
66456;Laerm;56833;52.254;5.598;2022-12-16T00:51:29;31.77;30.15;36.09;;
66456;Laerm;56833;52.254;5.598;2022-12-16T00:51:39;31.78;30.34;33.35;;
66456;Laerm;56833;52.254;5.598;2022-12-16T00:51:49;31.64;30.08;33.37;;
66456;Laerm;56833;52.254;5.598;2022-12-16T00:52:00;31.48;30.10;32.90;;
66456;Laerm;56833;52.254;5.598;2022-12-16T00:52:10;31.93;30.65;33.29;;
66456;Laerm;56833;52.254;5.598;2022-12-16T00:52:20;32.05;30.40;33.35;;
66456;Laerm;56833;52.254;5.598;2022-12-16T00:52:30;31.91;30.53;33.27;;
66456;Laerm;56833;52.254;5.598;2022-12-16T00:52:40;31.65;30.32;33.07;;
66456;Laerm;56833;52.254;5.598;2022-12-16T00:52:51;31.34;30.17;33.20;;
66456;Laerm;56833;52.254;5.598;2022-12-16T00:53:01;31.38;30.10;32.86;;
66456;Laerm;56833;52.254;5.598;2022-12-16T00:53:12;31.24;29.91;32.48;;
66456;Laerm;56833;52.254;5.598;2022-12-16T00:53:23;31.26;29.64;32.59;;
66456;Laerm;56833;52.254;5.598;2022-12-16T00:53:33;31.16;29.40;32.44;;
66456;Laerm;56833;52.254;5.598;2022-12-16T00:53:44;31.35;29.41;33.09;;
66456;Laerm;56833;52.254;5.598;2022-12-16T00:53:54;31.44;29.73;33.13;;
66456;Laerm;56833;52.254;5.598;2022-12-16T00:54:05;31.65;30.10;33.13;;
66456;Laerm;56833;52.254;5.598;2022-12-16T00:54:15;32.30;30.85;34.66;;
66456;Laerm;56833;52.254;5.598;2022-12-16T00:54:25;32.89;30.81;35.41;;
66456;Laerm;56833;52.254;5.598;2022-12-16T00:54:35;32.46;30.75;34.24;;
66456;Laerm;56833;52.254;5.598;2022-12-16T00:54:45;32.61;30.82;34.68;;
66456;Laerm;56833;52.254;5.598;2022-12-16T00:54:56;32.54;31.18;34.57;;
66456;Laerm;56833;52.254;5.598;2022-12-16T00:55:06;32.27;30.34;33.97;;
66456;Laerm;56833;52.254;5.598;2022-12-16T00:55:17;32.41;30.90;34.45;;
66456;Laerm;56833;52.254;5.598;2022-12-16T00:55:27;32.37;30.74;35.16;;
66456;Laerm;56833;52.254;5.598;2022-12-16T00:55:37;32.76;31.03;35.66;;
66456;Laerm;56833;52.254;5.598;2022-12-16T00:55:48;33.11;31.29;34.61;;
66456;Laerm;56833;52.254;5.598;2022-12-16T00:56:01;32.92;30.57;34.95;;
66456;Laerm;56833;52.254;5.598;2022-12-16T00:56:12;32.80;31.09;34.40;;
66456;Laerm;56833;52.254;5.598;2022-12-16T00:56:27;32.95;31.02;34.87;;
66456;Laerm;56833;52.254;5.598;2022-12-16T00:56:37;33.35;31.73;35.01;;
66456;Laerm;56833;52.254;5.598;2022-12-16T00:56:47;34.07;32.00;36.32;;
66456;Laerm;56833;52.254;5.598;2022-12-16T00:56:58;32.95;31.03;35.16;;
66456;Laerm;56833;52.254;5.598;2022-12-16T00:57:08;33.40;31.37;35.49;;
66456;Laerm;56833;52.254;5.598;2022-12-16T00:57:18;33.48;31.39;35.53;;
66456;Laerm;56833;52.254;5.598;2022-12-16T00:57:28;34.50;31.22;37.99;;
66456;Laerm;56833;52.254;5.598;2022-12-16T00:57:39;34.34;32.93;35.95;;
66456;Laerm;56833;52.254;5.598;2022-12-16T00:57:49;34.24;32.39;36.33;;
66456;Laerm;56833;52.254;5.598;2022-12-16T00:57:59;34.05;32.17;36.05;;
66456;Laerm;56833;52.254;5.598;2022-12-16T00:58:10;33.69;31.44;35.32;;
66456;Laerm;56833;52.254;5.598;2022-12-16T00:58:20;32.38;30.85;34.25;;
66456;Laerm;56833;52.254;5.598;2022-12-16T00:58:30;32.43;31.06;34.33;;
66456;Laerm;56833;52.254;5.598;2022-12-16T00:58:40;32.20;30.69;34.01;;
66456;Laerm;56833;52.254;5.598;2022-12-16T00:58:51;31.69;30.00;33.17;;
66456;Laerm;56833;52.254;5.598;2022-12-16T00:59:01;31.97;30.52;33.61;;
66456;Laerm;56833;52.254;5.598;2022-12-16T00:59:11;32.54;30.33;34.51;;
66456;Laerm;56833;52.254;5.598;2022-12-16T00:59:22;33.01;31.21;38.11;;